createdAt,value
2022-12-05T00:01:13.630Z,10.69
2022-12-05T00:03:41.587Z,10.68
2022-12-05T00:06:09.615Z,10.68
2022-12-05T00:08:37.532Z,10.66
2022-12-05T00:11:05.516Z,10.67
2022-12-05T00:13:33.404Z,10.65
2022-12-05T00:16:02.695Z,10.63
2022-12-05T00:18:30.643Z,10.63
2022-12-05T00:20:58.534Z,10.64
2022-12-05T00:23:26.421Z,10.66
2022-12-05T00:25:54.361Z,10.68
2022-12-05T00:28:22.277Z,10.72
2022-12-05T00:30:50.219Z,10.75
2022-12-05T00:33:19.492Z,10.76
2022-12-05T00:35:47.420Z,10.75
2022-12-05T00:38:15.316Z,10.76
2022-12-05T00:40:43.184Z,10.81
2022-12-05T00:43:11.108Z,10.84
2022-12-05T00:45:39.077Z,10.82
2022-12-05T00:48:07.268Z,10.80
2022-12-05T00:50:36.585Z,10.79
2022-12-05T00:53:04.485Z,10.77
2022-12-05T00:55:32.371Z,10.77
2022-12-05T00:58:00.258Z,10.76
2022-12-05T01:00:28.182Z,10.73
2022-12-05T01:02:56.797Z,10.74
2022-12-05T01:05:24.750Z,10.69
2022-12-05T01:07:54.304Z,10.62
2022-12-05T01:10:22.252Z,10.60
2022-12-05T01:12:50.280Z,10.58
2022-12-05T01:15:18.264Z,10.62
2022-12-05T01:17:46.181Z,10.60
2022-12-05T01:20:14.125Z,10.59
2022-12-05T01:22:42.066Z,10.54
2022-12-05T01:25:11.596Z,10.51
2022-12-05T01:27:39.460Z,10.53
2022-12-05T01:30:08.673Z,10.56
2022-12-05T01:32:36.579Z,10.56
2022-12-05T01:35:04.671Z,10.57
2022-12-05T01:37:32.622Z,10.60
2022-12-05T01:40:00.714Z,10.61
2022-12-05T01:42:29.993Z,10.62
2022-12-05T01:45:07.691Z,10.66
2022-12-05T01:47:36.593Z,10.67
2022-12-05T01:50:04.966Z,10.67
2022-12-05T01:52:32.915Z,10.67
2022-12-05T01:55:04.756Z,10.68
2022-12-05T01:57:34.053Z,10.68
2022-12-05T02:00:04.138Z,10.68
2022-12-05T02:02:32.080Z,10.70
2022-12-05T02:05:03.042Z,10.71
2022-12-05T02:07:31.221Z,10.70
2022-12-05T02:09:59.362Z,10.71
2022-12-05T02:12:27.497Z,10.69
2022-12-05T02:15:04.871Z,10.66
2022-12-05T02:17:37.242Z,10.69
2022-12-05T02:20:11.223Z,10.68
2022-12-05T02:22:52.055Z,10.65
2022-12-05T02:25:41.575Z,10.67
2022-12-05T02:28:23.272Z,10.69
2022-12-05T02:30:54.198Z,10.64
2022-12-05T02:33:23.337Z,10.65
2022-12-05T02:35:53.803Z,10.67
2022-12-05T02:38:27.101Z,10.74
2022-12-05T02:41:01.045Z,10.75
2022-12-05T02:43:31.936Z,10.78
2022-12-05T02:46:02.359Z,10.80
2022-12-05T02:48:30.355Z,10.79
2022-12-05T02:50:58.669Z,10.81
2022-12-05T02:53:26.740Z,10.80
2022-12-05T02:55:54.642Z,10.85
2022-12-05T02:58:24.849Z,10.86
2022-12-05T03:00:55.333Z,10.83
2022-12-05T03:03:24.646Z,10.82
2022-12-05T03:05:55.549Z,10.82
2022-12-05T03:08:24.617Z,10.79
2022-12-05T03:10:52.871Z,10.76
2022-12-05T03:13:22.243Z,10.71
2022-12-05T03:15:50.656Z,10.67
2022-12-05T03:18:20.014Z,10.58
2022-12-05T03:20:49.783Z,10.57
2022-12-05T03:23:19.530Z,10.55
2022-12-05T03:25:50.753Z,10.54
2022-12-05T03:28:20.279Z,10.52
2022-12-05T03:30:48.267Z,10.55
2022-12-05T03:33:16.706Z,10.56
2022-12-05T03:35:45.831Z,10.61
2022-12-05T03:38:16.253Z,10.64
2022-12-05T03:40:45.833Z,10.71
2022-12-05T03:43:17.208Z,10.77
2022-12-05T03:45:46.194Z,10.80
2022-12-05T03:48:16.244Z,10.83
2022-12-05T03:50:45.451Z,10.84
2022-12-05T03:53:20.916Z,10.85
2022-12-05T03:55:54.467Z,10.85
2022-12-05T03:58:24.291Z,10.83
2022-12-05T04:00:52.339Z,10.79
2022-12-05T04:03:22.144Z,10.74
2022-12-05T04:05:51.198Z,10.71
2022-12-05T04:08:21.394Z,10.64
2022-12-05T04:10:50.649Z,10.68
2022-12-05T04:13:20.029Z,10.70
2022-12-05T04:16:08.448Z,10.72
2022-12-05T04:18:37.807Z,10.69
2022-12-05T04:21:23.176Z,10.65
2022-12-05T04:24:13.757Z,10.63
2022-12-05T04:26:43.406Z,10.59
2022-12-05T04:29:13.162Z,10.57
2022-12-05T04:31:42.695Z,10.54
2022-12-05T04:34:12.170Z,10.54
2022-12-05T04:36:41.175Z,10.47
2022-12-05T04:39:17.763Z,10.52
2022-12-05T04:41:48.238Z,10.46
2022-12-05T04:44:18.897Z,10.45
2022-12-05T04:46:46.858Z,10.42
2022-12-05T04:49:17.173Z,10.39
2022-12-05T04:51:45.118Z,10.36
2022-12-05T04:54:16.127Z,10.31
2022-12-05T04:56:44.322Z,10.23
2022-12-05T04:59:12.246Z,10.19
2022-12-05T05:01:41.227Z,10.18
2022-12-05T05:04:10.636Z,10.15
2022-12-05T05:06:38.719Z,10.22
2022-12-05T05:09:06.628Z,10.25
2022-12-05T05:11:36.176Z,10.21
2022-12-05T05:14:04.314Z,10.27
2022-12-05T05:16:33.556Z,10.26
2022-12-05T05:19:01.459Z,10.25
2022-12-05T05:21:30.110Z,10.24
2022-12-05T05:23:58.350Z,10.21
2022-12-05T05:26:26.449Z,10.21
2022-12-05T05:28:55.797Z,10.17
2022-12-05T05:31:23.773Z,10.23
2022-12-05T05:33:51.919Z,10.25
2022-12-05T05:36:20.035Z,10.29
2022-12-05T05:38:49.263Z,10.31
2022-12-05T05:41:18.251Z,10.31
2022-12-05T05:43:46.481Z,10.28
2022-12-05T05:46:15.949Z,10.28
2022-12-05T05:48:43.904Z,10.29
2022-12-05T05:51:14.970Z,10.31
2022-12-05T05:53:42.912Z,10.31
2022-12-05T05:56:15.953Z,10.30
2022-12-05T05:58:48.123Z,10.32
2022-12-05T06:01:18.895Z,10.33
2022-12-05T06:03:46.943Z,10.33
2022-12-05T06:06:15.583Z,10.35
2022-12-05T06:08:44.185Z,10.39
2022-12-05T06:11:13.429Z,10.43
2022-12-05T06:13:41.389Z,10.47
2022-12-05T06:16:10.580Z,10.45
2022-12-05T06:18:39.891Z,10.56
2022-12-05T06:21:11.805Z,10.56
2022-12-05T06:23:43.977Z,10.54
2022-12-05T06:26:12.234Z,10.54
2022-12-05T06:28:40.547Z,10.54
2022-12-05T06:31:09.867Z,10.55
2022-12-05T06:33:39.263Z,10.44
2022-12-05T06:36:08.117Z,10.56
2022-12-05T06:38:40.539Z,10.54
2022-12-05T06:41:10.977Z,10.54
2022-12-05T06:43:38.927Z,10.57
2022-12-05T06:46:07.262Z,10.55
2022-12-05T06:48:35.284Z,10.55
2022-12-05T06:51:07.015Z,10.58
2022-12-05T06:53:34.911Z,10.57
2022-12-05T06:56:03.587Z,10.60
2022-12-05T06:58:31.587Z,10.61
2022-12-05T07:01:16.843Z,10.63
2022-12-05T07:03:45.146Z,10.61
2022-12-05T07:06:14.459Z,10.63
2022-12-05T07:08:42.586Z,10.64
2022-12-05T07:11:10.553Z,10.66
2022-12-05T07:13:38.490Z,10.65
2022-12-05T07:16:08.538Z,10.67
2022-12-05T07:18:36.558Z,10.69
2022-12-05T07:21:13.610Z,10.73
2022-12-05T07:23:43.694Z,10.75
2022-12-05T07:26:12.986Z,10.73
2022-12-05T07:28:40.946Z,10.72
2022-12-05T07:31:09.970Z,10.74
2022-12-05T07:33:37.996Z,10.75
2022-12-05T07:36:07.173Z,10.77
2022-12-05T07:38:35.211Z,10.79
2022-12-05T07:41:12.731Z,10.79
2022-12-05T07:43:41.799Z,10.79
2022-12-05T07:46:11.443Z,10.81
2022-12-05T07:48:39.663Z,10.81
2022-12-05T07:51:08.309Z,10.84
2022-12-05T07:53:36.344Z,10.86
2022-12-05T07:56:04.923Z,10.90
2022-12-05T07:58:36.014Z,10.92
2022-12-05T08:01:07.631Z,10.94
2022-12-05T08:03:35.578Z,10.95
2022-12-05T08:06:04.528Z,10.95
2022-12-05T08:08:33.016Z,10.98
2022-12-05T08:11:04.514Z,10.94
2022-12-05T08:13:32.583Z,10.94
2022-12-05T08:16:03.881Z,10.96
2022-12-05T08:18:31.860Z,10.96
2022-12-05T08:21:03.050Z,10.96
2022-12-05T08:23:31.896Z,10.94
2022-12-05T08:26:03.131Z,10.92
2022-12-05T08:28:31.137Z,10.92
2022-12-05T08:31:06.066Z,10.93
2022-12-05T08:33:34.091Z,10.95
2022-12-05T08:36:03.384Z,10.96
2022-12-05T08:38:31.442Z,11.00
2022-12-05T08:41:01.838Z,11.05
2022-12-05T08:43:30.017Z,11.07
2022-12-05T08:45:58.043Z,11.16
2022-12-05T08:48:29.399Z,11.19
2022-12-05T08:50:57.804Z,11.23
2022-12-05T08:53:25.730Z,11.26
2022-12-05T08:55:53.689Z,11.31
2022-12-05T08:58:21.704Z,11.34
2022-12-05T09:00:49.609Z,11.36
2022-12-05T09:03:17.558Z,11.36
2022-12-05T09:05:46.860Z,11.38
2022-12-05T09:08:14.863Z,11.40
2022-12-05T09:10:42.887Z,11.43
2022-12-05T09:13:10.875Z,11.46
2022-12-05T09:15:39.895Z,11.50
2022-12-05T09:18:07.917Z,11.52
2022-12-05T09:20:35.857Z,11.55
2022-12-05T09:23:05.203Z,11.59
2022-12-05T09:25:33.930Z,11.58
2022-12-05T09:28:01.901Z,11.60
2022-12-05T09:30:29.809Z,11.60
2022-12-05T09:32:57.746Z,11.63
2022-12-05T09:35:25.660Z,11.64
2022-12-05T09:37:57.080Z,11.66
2022-12-05T09:40:26.426Z,11.68
2022-12-05T09:43:00.079Z,11.65
2022-12-05T09:45:30.221Z,11.71
2022-12-05T09:48:00.648Z,11.74
2022-12-05T09:50:29.336Z,11.74
2022-12-05T09:53:05.842Z,11.76
2022-12-05T09:55:41.492Z,11.76
2022-12-05T09:58:18.014Z,11.76
2022-12-05T10:00:45.947Z,11.76
2022-12-05T10:03:20.182Z,11.79
2022-12-05T10:05:49.515Z,11.77
2022-12-05T10:08:20.855Z,11.86
2022-12-05T10:10:57.313Z,11.87
2022-12-05T10:13:46.888Z,11.89
2022-12-05T10:18:46.208Z,11.91
2022-12-05T10:21:17.214Z,11.92
2022-12-05T10:23:58.355Z,11.94
2022-12-05T10:26:30.004Z,11.96
2022-12-05T10:29:00.340Z,11.95
2022-12-05T10:31:29.405Z,11.95
2022-12-05T10:34:00.524Z,11.94
2022-12-05T10:36:29.702Z,11.96
2022-12-05T10:38:58.025Z,11.98
2022-12-05T10:41:28.688Z,11.98
2022-12-05T10:43:56.621Z,12.01
2022-12-05T10:46:24.587Z,12.04
2022-12-05T10:48:52.526Z,12.04
2022-12-05T10:51:24.770Z,12.01
2022-12-05T10:53:52.854Z,12.05
2022-12-05T10:56:42.383Z,12.05
2022-12-05T10:59:11.296Z,12.07
2022-12-05T11:01:39.781Z,12.11
2022-12-05T11:04:13.886Z,12.13
2022-12-05T11:06:41.975Z,12.15
2022-12-05T11:09:15.555Z,12.16
2022-12-05T11:11:44.859Z,12.14
2022-12-05T11:14:23.372Z,12.15
2022-12-05T11:16:54.248Z,12.17
2022-12-05T11:19:27.450Z,12.17
2022-12-05T11:21:56.062Z,12.17
2022-12-05T11:24:31.373Z,12.19
2022-12-05T11:27:01.324Z,12.23
2022-12-05T11:29:30.642Z,12.28
2022-12-05T11:31:58.660Z,12.29
2022-12-05T11:34:27.913Z,12.28
2022-12-05T11:36:57.433Z,12.27
2022-12-05T11:39:25.452Z,12.28
2022-12-05T11:42:14.677Z,12.33
2022-12-05T11:45:01.484Z,12.34
2022-12-05T11:47:39.845Z,12.36
2022-12-05T11:50:18.270Z,12.36
2022-12-05T11:52:53.426Z,12.36
2022-12-05T11:55:22.885Z,12.35
2022-12-05T11:58:03.239Z,12.34
2022-12-05T12:00:33.920Z,12.34
2022-12-05T12:03:33.382Z,12.35
2022-12-05T12:06:25.358Z,12.34
2022-12-05T12:09:17.310Z,12.37
2022-12-05T12:11:48.023Z,12.35
2022-12-05T12:14:20.896Z,12.37
2022-12-05T12:16:54.267Z,12.36
2022-12-05T12:19:40.653Z,12.36
2022-12-05T12:22:17.051Z,12.37
2022-12-05T12:24:57.821Z,12.38
2022-12-05T12:27:32.951Z,12.37
2022-12-05T12:30:04.822Z,12.33
2022-12-05T12:32:36.290Z,12.38
2022-12-05T12:35:21.155Z,12.38
2022-12-05T12:37:53.062Z,12.39
2022-12-05T12:40:23.220Z,12.45
2022-12-05T12:42:57.681Z,12.49
2022-12-05T12:45:52.734Z,12.58
2022-12-05T12:48:32.911Z,12.68
2022-12-05T12:51:01.273Z,12.76
2022-12-05T12:53:53.797Z,12.87
2022-12-05T12:56:28.011Z,12.93
2022-12-05T12:58:59.102Z,12.93
2022-12-05T13:01:33.094Z,12.97
2022-12-05T13:04:04.413Z,12.99
2022-12-05T13:06:35.061Z,12.97
2022-12-05T13:09:04.537Z,12.95
2022-12-05T13:11:36.504Z,12.94
2022-12-05T13:14:04.463Z,12.95
2022-12-05T13:16:37.118Z,12.96
2022-12-05T13:19:06.953Z,12.98
2022-12-05T13:21:34.946Z,13.02
2022-12-05T13:24:03.767Z,13.02
2022-12-05T13:26:32.007Z,13.11
2022-12-05T13:29:00.861Z,13.17
2022-12-05T13:31:41.361Z,13.24
2022-12-05T13:34:35.241Z,13.47
2022-12-05T13:37:29.624Z,13.79
2022-12-05T13:40:18.391Z,13.90
2022-12-05T13:42:48.064Z,14.12
2022-12-05T13:45:17.751Z,14.19
2022-12-05T13:47:52.880Z,14.24
2022-12-05T13:50:22.970Z,14.32
2022-12-05T13:52:54.091Z,14.39
2022-12-05T13:55:29.527Z,14.39
2022-12-05T13:58:00.537Z,14.40
2022-12-05T14:00:34.131Z,14.36
2022-12-05T14:03:08.458Z,14.14
2022-12-05T14:05:44.532Z,13.98
2022-12-05T14:08:48.029Z,13.66
2022-12-05T14:11:16.063Z,13.43
2022-12-05T14:13:45.035Z,13.30
2022-12-05T14:16:44.369Z,13.52
2022-12-05T14:19:34.433Z,14.11
2022-12-05T14:22:08.383Z,14.05
2022-12-05T14:24:38.367Z,14.63
2022-12-05T14:27:08.662Z,14.81
2022-12-05T14:29:41.069Z,14.74
2022-12-05T14:32:20.109Z,14.53
2022-12-05T14:34:55.198Z,14.26
2022-12-05T14:37:27.483Z,14.08
2022-12-05T14:39:56.121Z,14.00
2022-12-05T14:42:27.409Z,13.90
2022-12-05T14:44:56.448Z,13.78
2022-12-05T14:47:25.219Z,13.69
2022-12-05T14:50:02.568Z,13.61
2022-12-05T14:52:31.833Z,13.58
2022-12-05T14:55:02.738Z,13.55
2022-12-05T14:57:30.627Z,13.46
2022-12-05T14:59:59.984Z,13.40
2022-12-05T15:02:29.171Z,13.39
2022-12-05T15:05:00.805Z,13.33
2022-12-05T15:07:35.307Z,13.31
2022-12-05T15:10:05.104Z,13.30
2022-12-05T15:12:36.973Z,13.31
2022-12-05T15:15:08.832Z,13.29
2022-12-05T15:17:42.902Z,13.26
2022-12-05T15:20:17.364Z,13.20
2022-12-05T15:22:45.279Z,13.15
2022-12-05T15:25:21.552Z,13.08
2022-12-05T15:27:54.846Z,13.06
2022-12-05T15:30:22.799Z,13.02
2022-12-05T15:32:53.779Z,13.01
2022-12-05T15:35:27.500Z,12.99
2022-12-05T15:37:57.150Z,12.96
2022-12-05T15:40:26.251Z,12.98
2022-12-05T15:42:54.786Z,12.98
2022-12-05T15:45:24.429Z,12.95
2022-12-05T15:47:54.160Z,12.94
2022-12-05T15:50:25.446Z,12.94
2022-12-05T15:52:56.471Z,12.92
2022-12-05T15:55:27.699Z,12.89
2022-12-05T15:57:57.038Z,12.87
2022-12-05T16:00:26.181Z,12.85
2022-12-05T16:02:55.582Z,12.81
2022-12-05T16:05:25.279Z,12.82
2022-12-05T16:07:54.912Z,12.81
2022-12-05T16:10:29.116Z,12.81
2022-12-05T16:12:57.646Z,12.79
2022-12-05T16:15:26.277Z,12.77
2022-12-05T16:17:55.266Z,12.73
2022-12-05T16:20:25.950Z,12.72
2022-12-05T16:22:56.245Z,12.71
2022-12-05T16:25:25.543Z,12.71
2022-12-05T16:28:04.756Z,12.71
2022-12-05T16:30:32.697Z,12.71
2022-12-05T16:33:03.384Z,12.70
2022-12-05T16:35:38.815Z,12.70
2022-12-05T16:38:15.700Z,12.69
2022-12-05T16:40:52.293Z,12.69
2022-12-05T16:43:22.239Z,12.71
2022-12-05T16:45:50.294Z,12.71
2022-12-05T16:48:25.106Z,12.71
2022-12-05T16:50:53.809Z,12.72
2022-12-05T16:53:30.422Z,12.71
2022-12-05T16:55:59.011Z,12.71
2022-12-05T16:58:27.675Z,12.71
2022-12-05T17:01:00.779Z,12.71
2022-12-05T17:03:36.283Z,12.69
2022-12-05T17:06:04.585Z,12.63
2022-12-05T17:08:33.924Z,12.63
2022-12-05T17:11:03.774Z,12.58
2022-12-05T17:13:32.024Z,12.55
2022-12-05T17:16:00.038Z,12.51
2022-12-05T17:18:31.512Z,12.47
2022-12-05T17:21:01.044Z,12.43
2022-12-05T17:23:28.955Z,12.43
2022-12-05T17:25:58.864Z,12.39
2022-12-05T17:28:26.864Z,12.41
2022-12-05T17:30:54.758Z,12.42
2022-12-05T17:33:22.682Z,12.41
2022-12-05T17:35:52.046Z,12.43
2022-12-05T17:38:19.960Z,12.45
2022-12-05T17:40:48.032Z,12.37
2022-12-05T17:43:23.048Z,12.50
2022-12-05T17:45:54.599Z,12.51
2022-12-05T17:48:22.608Z,12.43
2022-12-05T17:50:50.588Z,12.56
2022-12-05T17:53:19.440Z,12.57
2022-12-05T17:55:48.765Z,12.60
2022-12-05T17:58:18.382Z,12.61
2022-12-05T18:00:46.751Z,12.62
2022-12-05T18:03:16.230Z,12.63
2022-12-05T18:05:44.678Z,12.64
2022-12-05T18:08:12.764Z,12.65
2022-12-05T18:10:42.104Z,12.69
2022-12-05T18:13:10.032Z,12.67
2022-12-05T18:15:42.712Z,12.69
2022-12-05T18:18:12.813Z,12.69
2022-12-05T18:20:40.718Z,12.71
2022-12-05T18:23:08.734Z,12.71
2022-12-05T18:25:36.697Z,12.73
2022-12-05T18:28:04.760Z,12.74
2022-12-05T18:30:33.476Z,12.75
2022-12-05T18:33:02.785Z,12.74
2022-12-05T18:35:42.681Z,12.75
2022-12-05T18:38:11.114Z,12.71
2022-12-05T18:40:39.088Z,12.72
2022-12-05T18:43:07.167Z,12.75
2022-12-05T18:45:35.151Z,12.75
2022-12-05T18:48:23.351Z,12.76
2022-12-05T18:50:52.888Z,12.76
2022-12-05T18:53:21.107Z,12.75
2022-12-05T18:56:13.506Z,12.75
2022-12-05T18:58:37.077Z,12.74
2022-12-05T19:01:07.199Z,12.73
2022-12-05T19:03:36.711Z,12.70
2022-12-05T19:06:12.335Z,12.71
2022-12-05T19:08:40.236Z,12.71
2022-12-05T19:11:08.237Z,12.72
2022-12-05T19:13:36.461Z,12.74
2022-12-05T19:16:04.498Z,12.74
2022-12-05T19:18:32.528Z,12.75
2022-12-05T19:21:01.859Z,12.75
2022-12-05T19:23:29.976Z,12.75
2022-12-05T19:26:00.726Z,12.75
2022-12-05T19:28:29.129Z,12.74
2022-12-05T19:31:00.870Z,12.77
2022-12-05T19:33:35.590Z,12.78
2022-12-05T19:36:06.169Z,12.77
2022-12-05T19:38:35.015Z,12.77
2022-12-05T19:41:03.096Z,12.75
2022-12-05T19:43:31.257Z,12.75
2022-12-05T19:45:59.359Z,12.74
2022-12-05T19:48:27.669Z,12.75
2022-12-05T19:50:56.600Z,12.74
2022-12-05T19:53:26.232Z,12.75
2022-12-05T19:55:54.121Z,12.76
2022-12-05T19:58:22.167Z,12.79
2022-12-05T20:00:52.518Z,12.80
2022-12-05T20:03:20.719Z,12.82
2022-12-05T20:05:57.601Z,12.85
2022-12-05T20:08:26.963Z,12.89
2022-12-05T20:10:55.277Z,12.88
2022-12-05T20:13:45.756Z,12.88
2022-12-05T20:16:12.676Z,12.87
2022-12-05T20:18:41.231Z,12.85
2022-12-05T20:21:09.955Z,12.85
2022-12-05T20:23:39.510Z,12.83
2022-12-05T20:26:09.469Z,12.82
2022-12-05T20:28:37.540Z,12.79
2022-12-05T20:31:07.034Z,12.76
2022-12-05T20:33:35.218Z,12.76
2022-12-05T20:36:04.483Z,12.74
2022-12-05T20:38:32.626Z,12.73
2022-12-05T20:41:02.205Z,12.73
2022-12-05T20:43:30.135Z,12.70
2022-12-05T20:45:58.140Z,12.70
2022-12-05T20:48:26.997Z,12.71
2022-12-05T20:50:55.379Z,12.69
2022-12-05T20:53:23.353Z,12.67
2022-12-05T20:55:51.560Z,12.62
2022-12-05T20:58:21.742Z,12.55
2022-12-05T21:00:49.866Z,12.48
2022-12-05T21:03:17.777Z,12.42
2022-12-05T21:05:45.792Z,12.40
2022-12-05T21:08:14.095Z,12.39
2022-12-05T21:10:45.299Z,12.39
2022-12-05T21:13:13.243Z,12.39
2022-12-05T21:15:42.648Z,12.40
2022-12-05T21:18:10.605Z,12.43
2022-12-05T21:20:42.101Z,12.45
2022-12-05T21:23:10.355Z,12.47
2022-12-05T21:25:38.301Z,12.47
2022-12-05T21:28:06.294Z,12.48
2022-12-05T21:30:35.450Z,12.47
2022-12-05T21:33:05.600Z,12.47
2022-12-05T21:35:33.578Z,12.45
2022-12-05T21:38:01.619Z,12.46
2022-12-05T21:40:29.827Z,12.46
2022-12-05T21:42:57.769Z,12.46
2022-12-05T21:45:25.827Z,12.45
2022-12-05T21:47:53.879Z,12.45
2022-12-05T21:50:23.244Z,12.46
2022-12-05T21:52:51.183Z,12.48
2022-12-05T21:55:19.091Z,12.47
2022-12-05T21:57:47.251Z,12.46
2022-12-05T22:00:15.786Z,12.44
2022-12-05T22:02:43.748Z,12.44
2022-12-05T22:05:11.702Z,12.42
2022-12-05T22:07:41.008Z,12.41
2022-12-05T22:10:09.457Z,12.40
2022-12-05T22:12:37.487Z,12.38
2022-12-05T22:15:06.203Z,12.37
2022-12-05T22:17:34.167Z,12.35
2022-12-05T22:20:02.372Z,12.31
2022-12-05T22:22:30.489Z,12.33
2022-12-05T22:25:00.249Z,12.28
2022-12-05T22:27:28.358Z,12.21
2022-12-05T22:29:56.337Z,12.15
2022-12-05T22:32:24.304Z,12.13
2022-12-05T22:34:52.220Z,12.11
2022-12-05T22:37:20.134Z,12.06
2022-12-05T22:39:48.067Z,12.04
2022-12-05T22:42:17.333Z,12.00
2022-12-05T22:44:45.269Z,12.01
2022-12-05T22:47:13.166Z,12.02
2022-12-05T22:49:41.100Z,11.99
2022-12-05T22:52:09.003Z,12.00
2022-12-05T22:54:36.937Z,11.97
2022-12-05T22:57:04.936Z,11.95
2022-12-05T22:59:34.318Z,11.90
2022-12-05T23:02:02.317Z,11.85
2022-12-05T23:04:30.373Z,11.82
2022-12-05T23:06:58.371Z,11.81
2022-12-05T23:09:27.096Z,11.77
2022-12-05T23:11:54.988Z,11.71
2022-12-05T23:14:22.943Z,11.70
2022-12-05T23:16:52.242Z,11.68
2022-12-05T23:19:20.137Z,11.67
2022-12-05T23:21:48.045Z,11.64
2022-12-05T23:24:15.952Z,11.66
2022-12-05T23:26:44.962Z,11.62
2022-12-05T23:29:13.190Z,11.58
2022-12-05T23:31:41.240Z,11.53
2022-12-05T23:34:11.037Z,11.48
2022-12-05T23:36:38.938Z,11.42
2022-12-05T23:39:07.110Z,11.40
2022-12-05T23:41:35.044Z,11.39
2022-12-05T23:44:02.969Z,11.33
2022-12-05T23:46:30.940Z,11.34
2022-12-05T23:48:58.884Z,11.28
2022-12-05T23:51:28.968Z,11.27
2022-12-05T23:53:57.636Z,11.28
2022-12-05T23:56:26.455Z,11.26
2022-12-05T23:58:54.612Z,11.24
